Time;durP1;ratioP1;P1;durP2;ratioP2;P2;SDS_P1;SDS_P2;PMS_P1;PMS_P2;Temp;Humidity;BMP_temperature;BMP_pressure;BME280_temperature;BME280_humidity;BME280_pressure;Samples;Min_cycle;Max_cycle;Signal;HPM_P1;HPM_P2
2023/09/14 00:00:50;;;;;;;5.18;3.50;;;14.00;99.90;;;;;;5017331;28;20180;-79
2023/09/14 00:03:16;;;;;;;13.35;4.47;;;14.00;99.90;;;;;;4999735;28;20562;-79
2023/09/14 00:05:44;;;;;;;6.70;4.18;;;14.00;99.90;;;;;;4999923;28;20180;-78
2023/09/14 00:08:12;;;;;;;7.63;4.00;;;13.90;99.90;;;;;;5018042;28;20195;-79
2023/09/14 00:10:38;;;;;;;6.00;3.90;;;14.00;99.90;;;;;;5000287;28;20176;-79
2023/09/14 00:13:05;;;;;;;10.60;4.65;;;14.00;99.90;;;;;;5017437;28;20171;-78
2023/09/14 00:15:31;;;;;;;8.38;3.88;;;14.00;99.90;;;;;;4999812;28;20184;-78
2023/09/14 00:17:57;;;;;;;12.50;4.38;;;14.00;99.90;;;;;;5017586;28;20206;-79
2023/09/14 00:20:26;;;;;;;12.98;4.57;;;14.10;99.90;;;;;;5000051;28;20270;-79
2023/09/14 00:22:53;;;;;;;12.13;4.57;;;14.10;99.90;;;;;;4999616;28;20245;-79
2023/09/14 00:25:19;;;;;;;5.93;4.07;;;14.10;99.90;;;;;;5000007;28;20172;-78
2023/09/14 00:27:46;;;;;;;8.57;3.95;;;14.10;99.90;;;;;;4999407;28;20199;-78
2023/09/14 00:30:12;;;;;;;10.60;4.22;;;14.00;99.90;;;;;;5000131;28;20199;-79
2023/09/14 00:32:39;;;;;;;10.10;4.60;;;14.00;99.90;;;;;;4999954;28;20695;-79
2023/09/14 00:35:09;;;;;;;7.57;4.22;;;14.00;99.90;;;;;;5000020;28;20191;-79
2023/09/14 00:37:35;;;;;;;8.35;4.15;;;13.90;99.90;;;;;;4999801;28;20215;-78
2023/09/14 00:40:06;;;;;;;7.25;4.10;;;13.90;99.90;;;;;;5015592;28;20190;-78
2023/09/14 00:42:46;;;;;;;6.30;4.00;;;13.90;99.90;;;;;;4997203;28;20283;-78
2023/09/14 00:45:14;;;;;;;11.63;4.57;;;13.80;99.90;;;;;;4997718;28;20180;-77
2023/09/14 00:47:57;;;;;;;7.05;4.15;;;13.90;99.90;;;;;;4997626;28;20191;-78
2023/09/14 00:50:24;;;;;;;8.13;4.28;;;13.80;99.90;;;;;;5018033;28;20171;-78
2023/09/14 00:53:04;;;;;;;8.48;4.40;;;13.80;99.90;;;;;;5001077;28;20189;-77
2023/09/14 00:55:31;;;;;;;6.93;4.10;;;13.80;99.90;;;;;;5018657;28;20235;-78
2023/09/14 00:57:57;;;;;;;6.90;3.85;;;13.80;99.90;;;;;;5018518;28;20195;-78
2023/09/14 01:00:23;;;;;;;8.32;3.97;;;13.80;99.90;;;;;;5018925;28;20180;-78
2023/09/14 01:02:58;;;;;;;9.90;4.40;;;13.90;99.90;;;;;;5018348;28;20695;-78
2023/09/14 01:05:30;;;;;;;10.35;4.70;;;13.90;99.90;;;;;;5000616;28;20171;-77
2023/09/14 01:07:59;;;;;;;8.65;4.45;;;13.90;99.90;;;;;;5018602;28;20198;-77
2023/09/14 01:10:26;;;;;;;5.00;4.07;;;13.80;99.90;;;;;;5000691;28;20191;-78
2023/09/14 01:12:52;;;;;;;5.57;4.35;;;13.80;99.90;;;;;;5000148;28;20186;-78
2023/09/14 01:15:33;;;;;;;6.28;4.10;;;13.70;99.90;;;;;;5018267;28;20633;-78
2023/09/14 01:18:26;;;;;;;7.45;4.65;;;13.70;99.90;;;;;;5017719;28;20192;-78
2023/09/14 01:21:10;;;;;;;9.07;4.53;;;13.80;99.90;;;;;;5000328;28;20182;-78
2023/09/14 01:23:48;;;;;;;9.88;4.80;;;13.70;99.90;;;;;;5000124;28;20176;-78
2023/09/14 01:26:15;;;;;;;9.88;4.70;;;13.70;99.90;;;;;;4999870;28;20661;-78
2023/09/14 01:28:41;;;;;;;8.95;4.57;;;13.60;99.90;;;;;;4999898;28;20179;-77
2023/09/14 01:31:07;;;;;;;13.20;4.82;;;13.50;99.90;;;;;;4999730;28;20555;-78
2023/09/14 01:33:33;;;;;;;14.48;5.03;;;13.50;99.90;;;;;;4999973;28;20180;-78
2023/09/14 01:36:14;;;;;;;13.40;4.50;;;13.40;99.90;;;;;;4999624;28;20278;-77
2023/09/14 01:38:42;;;;;;;8.75;4.32;;;13.40;99.90;;;;;;5017404;28;20183;-78
2023/09/14 01:41:09;;;;;;;7.97;4.93;;;13.30;99.90;;;;;;4999143;28;20191;-78
2023/09/14 01:43:35;;;;;;;9.82;5.07;;;13.30;99.90;;;;;;4999366;28;20176;-78
2023/09/14 01:46:02;;;;;;;10.88;6.22;;;13.20;99.90;;;;;;5000013;28;20641;-78
2023/09/14 01:48:29;;;;;;;9.70;5.38;;;13.20;99.90;;;;;;4999454;28;20234;-78
2023/09/14 01:50:55;;;;;;;8.82;4.78;;;13.10;99.90;;;;;;4999548;28;20176;-78
2023/09/14 01:53:20;;;;;;;6.15;4.82;;;13.10;99.90;;;;;;4999668;28;20266;-78
2023/09/14 01:55:46;;;;;;;6.95;4.53;;;13.10;99.90;;;;;;4999615;28;20639;-78
2023/09/14 01:58:12;;;;;;;7.38;4.57;;;13.10;99.90;;;;;;4999043;28;20203;-78
2023/09/14 02:00:38;;;;;;;6.30;4.57;;;13.10;99.90;;;;;;4998775;28;20186;-78
2023/09/14 02:03:04;;;;;;;13.27;4.95;;;13.00;99.90;;;;;;5017089;28;20202;-78
2023/09/14 02:05:30;;;;;;;10.20;4.90;;;13.00;99.90;;;;;;5016893;28;20179;-78
2023/09/14 02:07:56;;;;;;;8.27;4.70;;;13.00;99.90;;;;;;4999270;28;20287;-78
2023/09/14 02:10:22;;;;;;;10.57;4.80;;;13.00;99.90;;;;;;5016723;28;20251;-78
2023/09/14 02:12:51;;;;;;;6.80;4.60;;;13.00;99.90;;;;;;5016516;28;20180;-78
2023/09/14 02:15:17;;;;;;;8.63;4.50;;;13.00;99.90;;;;;;4999081;28;20234;-78
2023/09/14 02:17:43;;;;;;;10.25;4.72;;;13.00;99.90;;;;;;4999039;28;20195;-78
2023/09/14 02:20:10;;;;;;;9.73;4.80;;;12.90;99.90;;;;;;4998962;28;20187;-78
2023/09/14 02:22:36;;;;;;;7.60;4.57;;;12.90;99.90;;;;;;4999067;28;20715;-78
2023/09/14 02:25:02;;;;;;;7.03;4.47;;;12.80;99.90;;;;;;4998964;28;20183;-78
2023/09/14 02:27:28;;;;;;;10.18;4.53;;;12.80;99.90;;;;;;4998533;28;20195;-78
2023/09/14 02:29:54;;;;;;;10.43;4.80;;;12.80;99.90;;;;;;4998206;28;20656;-78
2023/09/14 02:32:20;;;;;;;11.13;4.80;;;12.70;99.90;;;;;;5016132;28;20184;-78
2023/09/14 02:34:48;;;;;;;10.98;4.32;;;12.70;99.90;;;;;;4998500;28;20191;-78
2023/09/14 02:37:14;;;;;;;8.68;4.07;;;12.70;99.90;;;;;;4998225;28;20215;-78
2023/09/14 02:39:40;;;;;;;11.13;4.60;;;12.70;99.90;;;;;;5015956;28;20266;-78
2023/09/14 02:42:05;;;;;;;5.95;3.97;;;12.70;99.90;;;;;;4997932;28;20297;-78
2023/09/14 02:44:31;;;;;;;7.75;4.38;;;12.60;99.90;;;;;;5015954;28;20184;-78
2023/09/14 02:46:57;;;;;;;12.82;4.47;;;12.70;99.90;;;;;;5015436;28;20203;-78
2023/09/14 02:49:22;;;;;;;6.90;4.68;;;12.60;99.90;;;;;;4997960;28;20190;-78
2023/09/14 02:51:48;;;;;;;15.82;4.75;;;12.60;99.90;;;;;;4998154;28;20184;-78
2023/09/14 02:54:14;;;;;;;6.15;4.35;;;12.50;99.90;;;;;;4997848;28;20215;-78
2023/09/14 02:56:41;;;;;;;7.30;4.20;;;12.40;99.90;;;;;;4997777;28;20200;-78
2023/09/14 02:59:07;;;;;;;8.82;4.30;;;12.40;99.90;;;;;;5016007;28;20176;-78
2023/09/14 03:01:33;;;;;;;8.35;4.10;;;12.30;99.90;;;;;;4997685;28;20203;-78
2023/09/14 03:03:59;;;;;;;8.93;4.30;;;12.40;99.90;;;;;;4997735;28;20171;-78
2023/09/14 03:06:26;;;;;;;5.55;4.07;;;12.40;99.90;;;;;;4997449;28;20282;-78
2023/09/14 03:08:52;;;;;;;9.68;4.70;;;12.30;99.90;;;;;;5015187;28;20176;-77
2023/09/14 03:11:17;;;;;;;7.80;4.38;;;12.20;99.90;;;;;;4997176;28;20229;-78
2023/09/14 03:13:43;;;;;;;8.93;4.10;;;12.20;99.90;;;;;;4996759;28;20203;-78
2023/09/14 03:16:09;;;;;;;9.73;4.45;;;12.20;99.90;;;;;;4997343;28;20270;-78
2023/09/14 03:18:35;;;;;;;9.18;4.43;;;12.20;99.90;;;;;;5015151;28;20660;-77
2023/09/14 03:21:00;;;;;;;4.82;3.80;;;12.30;99.90;;;;;;4997332;28;20218;-78
2023/09/14 03:23:26;;;;;;;5.72;3.88;;;12.30;99.90;;;;;;4997073;28;20196;-78
2023/09/14 03:25:52;;;;;;;6.20;4.28;;;12.30;99.90;;;;;;4997307;28;20188;-78
2023/09/14 03:28:18;;;;;;;6.10;3.80;;;12.30;99.90;;;;;;4996972;28;20541;-77
2023/09/14 03:30:44;;;;;;;10.68;4.82;;;12.30;99.90;;;;;;4996949;28;20183;-78
2023/09/14 03:33:11;;;;;;;7.93;3.90;;;12.30;99.90;;;;;;4997317;28;20200;-78
2023/09/14 03:35:37;;;;;;;8.68;4.53;;;12.20;99.90;;;;;;4996581;28;20210;-77
2023/09/14 03:38:03;;;;;;;8.02;4.03;;;12.20;99.90;;;;;;4977771;28;20660;-78
2023/09/14 03:40:29;;;;;;;6.30;4.38;;;12.20;99.90;;;;;;4977695;28;20276;-77
2023/09/14 03:42:55;;;;;;;12.38;3.97;;;12.10;99.90;;;;;;4977220;28;20292;-78
2023/09/14 03:45:20;;;;;;;5.68;4.07;;;12.00;99.90;;;;;;4995020;28;20263;-78
2023/09/14 03:47:49;;;;;;;4.07;3.55;;;12.00;99.90;;;;;;4977319;28;20246;-77
2023/09/14 03:50:15;;;;;;;6.03;3.80;;;12.00;99.90;;;;;;4977394;28;20188;-78
2023/09/14 03:52:40;;;;;;;6.05;3.80;;;12.00;99.90;;;;;;4977247;28;20180;-78
2023/09/14 03:55:07;;;;;;;7.65;5.10;;;12.00;99.90;;;;;;4977318;28;20191;-77
2023/09/14 03:57:33;;;;;;;9.48;4.88;;;12.10;99.90;;;;;;4994663;28;20246;-77
2023/09/14 03:59:58;;;;;;;9.77;4.43;;;12.10;99.90;;;;;;4994956;28;20255;-78
2023/09/14 04:02:24;;;;;;;10.18;5.00;;;12.10;99.90;;;;;;4977345;28;20203;-78
2023/09/14 04:04:50;;;;;;;12.70;4.82;;;12.20;99.90;;;;;;4977186;28;20183;-77
2023/09/14 04:07:16;;;;;;;11.23;4.72;;;12.10;99.90;;;;;;4991540;28;20210;-77
2023/09/14 04:09:43;;;;;;;21.75;5.82;;;12.10;99.90;;;;;;5014061;28;20168;-77
2023/09/14 04:12:09;;;;;;;8.55;4.43;;;12.10;99.90;;;;;;4996346;28;20715;-78
2023/09/14 04:14:35;;;;;;;6.43;4.30;;;12.10;99.90;;;;;;4996626;28;20298;-78
2023/09/14 04:17:01;;;;;;;11.02;4.55;;;12.20;99.90;;;;;;4996872;28;20196;-77
2023/09/14 04:19:29;;;;;;;10.38;4.47;;;12.30;99.90;;;;;;4996733;28;20187;-78
2023/09/14 04:21:55;;;;;;;8.50;4.65;;;12.30;99.90;;;;;;5014860;28;20556;-78
2023/09/14 04:24:21;;;;;;;6.57;4.18;;;12.30;99.90;;;;;;4996522;28;20175;-77
2023/09/14 04:26:48;;;;;;;8.90;4.95;;;12.30;99.90;;;;;;4996359;28;20202;-78
2023/09/14 04:29:14;;;;;;;7.38;4.55;;;12.30;99.90;;;;;;5014328;28;20648;-78
2023/09/14 04:31:43;;;;;;;6.85;4.85;;;12.40;99.90;;;;;;4996689;28;20703;-77
2023/09/14 04:34:09;;;;;;;10.43;4.75;;;12.40;99.90;;;;;;4996633;28;20183;-78
2023/09/14 04:36:37;;;;;;;6.25;4.85;;;12.40;99.90;;;;;;4996495;28;20227;-77
2023/09/14 04:39:03;;;;;;;6.43;5.07;;;12.30;99.90;;;;;;4996983;28;20245;-77
2023/09/14 04:41:30;;;;;;;6.72;4.68;;;12.40;99.90;;;;;;4996297;28;20211;-77
2023/09/14 04:43:57;;;;;;;5.50;4.53;;;12.40;99.90;;;;;;5013828;28;20180;-77
2023/09/14 04:46:23;;;;;;;8.98;4.40;;;12.40;99.90;;;;;;4996597;28;20187;-77
2023/09/14 04:48:49;;;;;;;6.57;4.30;;;12.40;99.90;;;;;;4997836;28;20179;-78
2023/09/14 04:51:15;;;;;;;7.38;4.38;;;12.40;99.90;;;;;;4996876;28;20186;-78
2023/09/14 04:53:40;;;;;;;11.90;4.63;;;12.40;99.90;;;;;;5001125;28;20201;-76
2023/09/14 04:56:07;;;;;;;10.75;5.40;;;12.50;99.90;;;;;;5014548;28;20180;-76
2023/09/14 04:58:32;;;;;;;9.55;4.55;;;12.40;99.90;;;;;;4996066;28;20258;-76
2023/09/14 05:01:00;;;;;;;9.63;4.82;;;12.40;99.90;;;;;;4996573;28;20180;-76
2023/09/14 05:03:26;;;;;;;10.10;5.20;;;12.40;99.90;;;;;;4996134;28;20242;-76
2023/09/14 05:05:54;;;;;;;5.97;4.50;;;12.40;99.90;;;;;;4996439;28;20338;-77
2023/09/14 05:08:20;;;;;;;11.35;5.57;;;12.40;99.90;;;;;;5013662;28;20609;-77
2023/09/14 05:10:49;;;;;;;9.98;5.10;;;12.40;99.90;;;;;;4996023;28;20637;-76
2023/09/14 05:13:18;;;;;;;9.45;5.50;;;12.50;99.90;;;;;;5013450;28;20187;-76
2023/09/14 05:15:46;;;;;;;10.32;5.78;;;12.50;99.90;;;;;;4996005;28;20271;-76
2023/09/14 05:18:12;;;;;;;11.23;6.22;;;12.50;99.90;;;;;;4996302;28;20575;-76
2023/09/14 05:20:46;;;;;;;8.95;5.50;;;12.30;99.90;;;;;;5013597;28;20175;-76
2023/09/14 05:23:12;;;;;;;11.07;6.95;;;12.40;99.90;;;;;;5013606;28;20636;-76
2023/09/14 05:25:42;;;;;;;10.48;5.93;;;12.50;99.90;;;;;;5013974;28;20204;-76
2023/09/14 05:28:08;;;;;;;12.93;6.07;;;12.50;99.90;;;;;;4997076;28;20230;-76
2023/09/14 05:30:34;;;;;;;10.77;6.53;;;12.50;99.90;;;;;;4997623;28;20543;-77
2023/09/14 05:33:00;;;;;;;13.52;7.38;;;12.50;99.90;;;;;;4996662;28;20179;-76
2023/09/14 05:35:26;;;;;;;10.93;6.68;;;12.60;99.90;;;;;;5014974;28;20182;-77
2023/09/14 05:37:52;;;;;;;9.10;6.35;;;12.60;99.90;;;;;;5017272;28;20254;-77
2023/09/14 05:40:18;;;;;;;7.47;6.07;;;12.60;99.90;;;;;;4999523;28;20226;-76
2023/09/14 05:42:44;;;;;;;13.02;5.80;;;12.60;99.90;;;;;;4999179;28;20610;-76
2023/09/14 05:45:11;;;;;;;9.00;6.72;;;12.60;99.90;;;;;;5016998;28;20211;-76
2023/09/14 05:47:37;;;;;;;7.63;6.10;;;12.60;99.90;;;;;;4999117;28;20191;-76
2023/09/14 05:50:06;;;;;;;10.02;6.65;;;12.70;99.90;;;;;;5016660;28;20207;-76
2023/09/14 05:52:32;;;;;;;8.57;6.05;;;12.60;99.90;;;;;;4999089;28;20206;-76
2023/09/14 05:54:58;;;;;;;13.23;6.15;;;12.60;99.90;;;;;;5017216;28;20197;-76
2023/09/14 05:57:24;;;;;;;9.95;5.82;;;12.60;99.90;;;;;;5016339;28;20215;-76
2023/09/14 05:59:50;;;;;;;10.75;6.68;;;12.60;99.90;;;;;;5016560;28;20171;-76
2023/09/14 06:02:18;;;;;;;15.40;7.30;;;12.60;99.90;;;;;;5016726;28;20246;-76
2023/09/14 06:04:44;;;;;;;11.65;7.00;;;12.60;99.90;;;;;;4998836;28;20233;-76
2023/09/14 06:07:10;;;;;;;13.25;6.05;;;12.70;99.90;;;;;;5016159;28;20246;-76
2023/09/14 06:09:36;;;;;;;11.98;6.60;;;12.70;99.90;;;;;;5016359;28;20213;-76
2023/09/14 06:12:02;;;;;;;12.25;6.30;;;12.80;99.90;;;;;;4998518;28;20187;-76
2023/09/14 06:14:27;;;;;;;11.70;6.63;;;12.90;99.90;;;;;;5016174;28;20167;-76
2023/09/14 06:16:53;;;;;;;8.82;5.53;;;12.90;99.90;;;;;;5015974;28;20192;-76
2023/09/14 06:19:19;;;;;;;8.55;5.63;;;13.00;99.90;;;;;;5016274;28;20182;-76
2023/09/14 06:21:45;;;;;;;12.95;5.63;;;13.00;99.90;;;;;;4998366;28;20207;-76
2023/09/14 06:24:11;;;;;;;12.48;5.88;;;13.00;99.90;;;;;;5016179;28;20176;-77
2023/09/14 06:26:38;;;;;;;7.10;5.43;;;13.10;99.90;;;;;;4998238;28;20231;-76
2023/09/14 06:29:04;;;;;;;11.35;6.35;;;13.10;99.90;;;;;;5015463;28;20168;-77
2023/09/14 06:31:30;;;;;;;13.00;7.13;;;13.10;99.90;;;;;;5016259;28;20172;-77
2023/09/14 06:33:56;;;;;;;11.23;7.05;;;13.30;99.90;;;;;;4998168;28;20178;-76
2023/09/14 06:36:21;;;;;;;10.00;6.93;;;13.30;99.90;;;;;;5015781;28;20656;-76
2023/09/14 06:38:48;;;;;;;13.07;7.07;;;13.30;99.90;;;;;;4998186;28;20176;-76
2023/09/14 06:41:14;;;;;;;11.85;6.68;;;13.30;99.90;;;;;;4998039;28;20163;-76
2023/09/14 06:43:46;;;;;;;19.75;8.07;;;13.40;99.90;;;;;;4997861;28;20710;-76
2023/09/14 06:46:12;;;;;;;9.75;7.43;;;13.40;99.90;;;;;;4997942;28;20716;-76
2023/09/14 06:48:39;;;;;;;13.43;8.15;;;13.50;99.90;;;;;;5016545;28;20199;-76
2023/09/14 06:51:07;;;;;;;12.93;8.27;;;13.50;99.90;;;;;;4997966;28;20204;-76
2023/09/14 06:53:33;;;;;;;14.52;7.53;;;13.60;99.90;;;;;;5015391;28;20180;-76
2023/09/14 06:56:10;;;;;;;11.15;7.28;;;13.60;99.90;;;;;;4997775;28;20179;-76
2023/09/14 06:58:37;;;;;;;9.25;6.50;;;13.60;99.90;;;;;;5015210;28;20195;-76
2023/09/14 07:01:04;;;;;;;11.18;6.28;;;13.60;99.90;;;;;;4997863;28;20196;-76
2023/09/14 07:03:31;;;;;;;12.88;7.30;;;13.70;99.90;;;;;;4997640;28;20579;-76
2023/09/14 07:05:57;;;;;;;14.63;8.02;;;13.70;99.90;;;;;;5015346;28;20191;-76
2023/09/14 07:08:23;;;;;;;13.45;8.27;;;13.80;99.90;;;;;;4997525;28;20199;-76
2023/09/14 07:10:49;;;;;;;16.02;9.13;;;13.90;99.90;;;;;;4997524;28;20180;-77
2023/09/14 07:13:14;;;;;;;17.92;8.32;;;13.90;99.90;;;;;;5014889;28;20176;-77
2023/09/14 07:15:41;;;;;;;14.73;7.80;;;13.90;99.90;;;;;;4997393;28;20180;-77
2023/09/14 07:18:07;;;;;;;9.90;6.95;;;14.00;99.90;;;;;;4997542;28;20239;-77
2023/09/14 07:20:32;;;;;;;13.82;8.15;;;14.10;99.90;;;;;;4997329;28;20211;-76
2023/09/14 07:22:58;;;;;;;17.23;8.52;;;14.20;99.90;;;;;;4997601;28;20781;-77
2023/09/14 07:25:24;;;;;;;10.95;7.65;;;14.30;99.90;;;;;;5015071;28;20182;-76
2023/09/14 07:27:50;;;;;;;13.68;7.38;;;14.30;99.90;;;;;;4997169;28;20200;-77
2023/09/14 07:30:16;;;;;;;16.85;8.57;;;14.40;99.90;;;;;;5014992;28;20195;-77
2023/09/14 07:32:41;;;;;;;12.63;7.05;;;14.40;99.90;;;;;;5014994;28;20179;-76
2023/09/14 07:35:08;;;;;;;14.45;8.70;;;14.50;99.90;;;;;;4997373;28;20188;-77
2023/09/14 07:37:36;;;;;;;14.90;8.27;;;14.60;99.90;;;;;;5014760;28;20211;-77
2023/09/14 07:40:03;;;;;;;21.65;9.68;;;14.70;99.90;;;;;;4997327;28;20187;-77
2023/09/14 07:42:29;;;;;;;13.10;8.40;;;14.70;99.90;;;;;;5014792;28;20203;-77
2023/09/14 07:44:55;;;;;;;12.68;8.18;;;14.80;99.90;;;;;;5014851;28;20172;-76
2023/09/14 07:47:28;;;;;;;15.35;9.82;;;14.90;99.90;;;;;;5014617;28;20228;-77
2023/09/14 07:49:54;;;;;;;15.02;10.10;;;15.00;99.90;;;;;;5015657;28;20159;-77
2023/09/14 07:52:19;;;;;;;14.57;9.75;;;15.20;99.90;;;;;;4997327;28;20187;-76
2023/09/14 07:54:45;;;;;;;17.55;9.95;;;15.30;99.90;;;;;;5015517;28;20255;-77
2023/09/14 07:57:11;;;;;;;19.55;11.20;;;15.30;99.90;;;;;;4997031;28;20616;-77
2023/09/14 07:59:36;;;;;;;14.18;9.63;;;15.30;99.90;;;;;;5014711;28;20255;-77
2023/09/14 08:02:02;;;;;;;15.27;8.02;;;15.30;99.90;;;;;;4997936;28;20207;-76
2023/09/14 08:04:28;;;;;;;16.92;8.85;;;15.40;99.90;;;;;;5015994;28;20540;-77
2023/09/14 08:06:54;;;;;;;15.95;10.52;;;15.50;99.90;;;;;;5015721;28;20195;-77
2023/09/14 08:09:20;;;;;;;15.57;10.02;;;15.50;99.90;;;;;;5015927;28;20528;-77
2023/09/14 08:11:46;;;;;;;18.33;9.02;;;15.50;99.90;;;;;;4998356;28;20205;-76
2023/09/14 08:14:12;;;;;;;12.02;7.72;;;15.60;99.90;;;;;;5017540;28;20207;-76
2023/09/14 08:16:37;;;;;;;17.58;9.50;;;15.70;99.90;;;;;;5002116;28;20672;-76
2023/09/14 08:19:03;;;;;;;15.43;9.68;;;15.70;99.90;;;;;;4998244;28;20213;-77
2023/09/14 08:21:29;;;;;;;17.45;8.75;;;15.70;99.90;;;;;;4996819;28;20206;-76
2023/09/14 08:23:55;;;;;;;13.98;8.02;;;15.70;99.90;;;;;;4997020;28;20179;-76
2023/09/14 08:26:21;;;;;;;13.70;8.00;;;15.80;99.90;;;;;;4996575;28;20198;-77
2023/09/14 08:28:46;;;;;;;12.15;8.65;;;15.90;99.90;;;;;;5014275;28;20176;-77
2023/09/14 08:31:12;;;;;;;12.77;8.10;;;16.10;99.90;;;;;;5015084;28;20231;-76
2023/09/14 08:33:38;;;;;;;12.95;8.45;;;16.20;99.90;;;;;;4997473;28;20234;-76
2023/09/14 08:36:03;;;;;;;16.65;8.98;;;16.30;99.90;;;;;;5014700;28;20187;-76
2023/09/14 08:38:29;;;;;;;10.85;8.15;;;16.40;99.90;;;;;;4996532;28;20684;-76
2023/09/14 08:41:00;;;;;;;16.77;10.00;;;16.40;99.90;;;;;;4996581;28;20176;-76
2023/09/14 08:43:27;;;;;;;13.85;8.75;;;16.40;99.90;;;;;;4996434;28;20219;-76
2023/09/14 08:45:53;;;;;;;14.50;7.88;;;16.40;99.90;;;;;;5014317;28;20633;-76
2023/09/14 08:48:25;;;;;;;16.02;9.50;;;16.50;99.90;;;;;;5013907;28;20735;-77
2023/09/14 08:50:53;;;;;;;19.98;9.85;;;16.60;99.90;;;;;;4996221;28;20241;-76
2023/09/14 08:53:20;;;;;;;15.82;8.77;;;16.70;99.90;;;;;;5013998;28;20176;-76
2023/09/14 08:55:46;;;;;;;12.70;7.82;;;16.70;99.90;;;;;;4996177;28;20218;-76
2023/09/14 08:58:15;;;;;;;14.55;8.13;;;16.80;99.90;;;;;;4995799;28;20204;-76
2023/09/14 09:00:42;;;;;;;15.23;8.63;;;17.00;99.90;;;;;;5014219;28;20691;-76
2023/09/14 09:03:08;;;;;;;12.00;7.53;;;17.00;99.90;;;;;;4996073;28;20203;-77
2023/09/14 09:05:34;;;;;;;10.80;6.80;;;17.10;99.90;;;;;;4995978;28;20222;-76
2023/09/14 09:08:00;;;;;;;10.65;6.75;;;17.10;99.90;;;;;;5013695;28;20619;-76
2023/09/14 09:10:27;;;;;;;14.85;6.40;;;17.20;99.90;;;;;;5014614;28;20184;-76
2023/09/14 09:12:57;;;;;;;15.10;5.97;;;17.40;99.90;;;;;;5017398;28;20184;-76
2023/09/14 09:15:24;;;;;;;7.22;4.45;;;17.40;99.90;;;;;;5017526;28;20255;-77
2023/09/14 09:17:54;;;;;;;9.13;5.00;;;17.50;99.90;;;;;;5000019;28;20203;-76
2023/09/14 09:20:25;;;;;;;11.15;4.70;;;17.50;99.90;;;;;;5000129;28;20640;-77
2023/09/14 09:22:53;;;;;;;12.55;5.82;;;17.60;99.90;;;;;;5017701;28;20196;-77
2023/09/14 09:25:20;;;;;;;10.90;4.85;;;17.70;99.90;;;;;;5017576;28;20164;-77
2023/09/14 09:27:46;;;;;;;10.15;4.63;;;17.70;99.90;;;;;;4999807;28;20246;-76
2023/09/14 09:30:13;;;;;;;9.68;4.63;;;17.70;99.90;;;;;;5017281;28;20262;-76
2023/09/14 09:32:42;;;;;;;5.65;4.13;;;17.80;99.90;;;;;;5017195;28;20183;-77
2023/09/14 09:35:27;;;;;;;6.68;4.05;;;18.00;99.90;;;;;;4999856;28;20527;-77
2023/09/14 09:37:54;;;;;;;8.13;4.28;;;18.00;99.90;;;;;;4999377;28;20211;-77
2023/09/14 09:40:25;;;;;;;8.70;4.13;;;18.00;99.90;;;;;;4999744;28;20180;-77
2023/09/14 09:42:54;;;;;;;8.32;3.70;;;18.00;99.90;;;;;;4999020;28;20274;-75
2023/09/14 09:45:24;;;;;;;12.85;4.00;;;18.10;99.90;;;;;;4998974;28;20179;-75
2023/09/14 09:47:50;;;;;;;9.52;3.53;;;18.00;99.90;;;;;;4979685;28;20196;-75
2023/09/14 09:50:19;;;;;;;8.65;3.53;;;17.90;99.90;;;;;;4979792;28;20182;-75
2023/09/14 09:52:46;;;;;;;9.00;4.00;;;17.90;99.90;;;;;;4997073;28;20199;-75
2023/09/14 09:55:22;;;;;;;4.95;2.78;;;18.00;99.90;;;;;;4979584;28;20180;-75
2023/09/14 09:57:51;;;;;;;7.70;3.08;;;18.00;99.90;;;;;;4996780;28;20280;-76
2023/09/14 10:00:19;;;;;;;8.45;3.30;;;18.00;99.90;;;;;;4979644;28;20180;-76
2023/09/14 10:02:46;;;;;;;5.22;2.90;;;18.10;99.90;;;;;;4979346;28;20673;-75
2023/09/14 10:05:12;;;;;;;8.23;3.20;;;18.00;99.90;;;;;;4996852;28;20655;-75
2023/09/14 10:07:41;;;;;;;7.30;2.85;;;17.90;99.90;;;;;;4979422;28;20284;-75
2023/09/14 10:10:11;;;;;;;5.45;2.58;;;17.90;99.90;;;;;;4979416;28;20188;-75
2023/09/14 10:12:41;;;;;;;5.18;2.80;;;17.80;99.90;;;;;;4996776;28;20184;-75
2023/09/14 10:15:08;;;;;;;6.28;2.85;;;17.70;99.90;;;;;;4979303;28;20222;-75
2023/09/14 10:17:35;;;;;;;7.82;2.90;;;17.60;99.90;;;;;;4996867;28;20302;-75
2023/09/14 10:20:08;;;;;;;5.85;3.00;;;17.80;99.90;;;;;;5016097;28;20229;-75
2023/09/14 10:22:36;;;;;;;7.15;2.95;;;18.00;99.90;;;;;;4998054;28;20206;-75
2023/09/14 10:25:04;;;;;;;3.22;2.35;;;18.30;99.90;;;;;;4998376;28;20230;-75
2023/09/14 10:27:30;;;;;;;5.20;2.70;;;18.50;99.90;;;;;;4998356;28;20196;-75
2023/09/14 10:29:58;;;;;;;5.72;3.00;;;18.60;99.90;;;;;;4998231;28;20246;-75
2023/09/14 10:32:25;;;;;;;4.20;2.80;;;18.80;99.90;;;;;;5016434;28;20259;-75
2023/09/14 10:34:52;;;;;;;4.25;2.45;;;18.90;99.90;;;;;;5016332;28;20176;-75
2023/09/14 10:37:21;;;;;;;7.32;2.95;;;19.00;99.90;;;;;;5016313;28;20203;-75
2023/09/14 10:39:47;;;;;;;7.13;3.15;;;19.20;99.90;;;;;;4998383;28;20179;-75
2023/09/14 10:42:13;;;;;;;6.32;2.60;;;19.20;99.90;;;;;;5016141;28;20691;-75
2023/09/14 10:44:40;;;;;;;3.38;2.30;;;19.10;99.90;;;;;;5015589;28;20175;-75
2023/09/14 10:47:06;;;;;;;5.35;3.08;;;19.00;99.90;;;;;;5015906;28;20199;-75
2023/09/14 10:49:34;;;;;;;4.65;2.63;;;18.90;99.90;;;;;;5015884;28;20577;-76
2023/09/14 10:52:01;;;;;;;5.30;2.90;;;18.70;99.90;;;;;;4998229;28;20180;-76
2023/09/14 10:54:30;;;;;;;4.57;2.60;;;18.60;99.90;;;;;;4998242;28;20180;-75
2023/09/14 10:57:01;;;;;;;5.85;2.85;;;18.70;99.90;;;;;;5015528;28;20235;-75
2023/09/14 10:59:47;;;;;;;4.65;3.00;;;18.70;99.90;;;;;;5015367;28;20195;-75
2023/09/14 11:02:48;;;;;;;5.53;2.65;;;18.80;99.90;;;;;;4997948;28;20246;-75
2023/09/14 11:05:18;;;;;;;5.55;2.80;;;18.80;99.90;;;;;;4997903;28;20730;-75
2023/09/14 11:07:55;;;;;;;7.25;3.00;;;18.90;99.90;;;;;;5015594;28;20195;-75
2023/09/14 11:10:22;;;;;;;5.95;3.10;;;19.00;99.90;;;;;;5015892;28;20581;-76
2023/09/14 11:12:48;;;;;;;4.85;2.60;;;18.90;99.90;;;;;;4998010;28;20180;-76
2023/09/14 11:15:22;;;;;;;3.25;2.58;;;19.00;99.90;;;;;;5015272;28;20176;-75
2023/09/14 11:17:56;;;;;;;3.90;3.05;;;19.30;99.90;;;;;;5015544;28;20211;-76
2023/09/14 11:20:25;;;;;;;5.03;2.78;;;19.40;99.90;;;;;;4997926;28;20178;-75
2023/09/14 11:22:52;;;;;;;4.45;2.78;;;19.60;99.90;;;;;;4997582;28;20257;-75
2023/09/14 11:25:41;;;;;;;8.48;3.10;;;19.70;99.90;;;;;;5015506;28;20629;-75
2023/09/14 11:28:21;;;;;;;5.63;2.50;;;19.80;99.90;;;;;;4997853;28;20341;-75
2023/09/14 11:30:50;;;;;;;3.97;2.65;;;19.90;99.90;;;;;;4997936;28;20195;-76
2023/09/14 11:33:16;;;;;;;5.72;2.88;;;20.20;99.90;;;;;;4996486;28;20542;-76
2023/09/14 11:35:47;;;;;;;3.63;2.45;;;20.20;99.90;;;;;;4997063;28;20263;-76
2023/09/14 11:38:21;;;;;;;9.20;3.05;;;20.10;99.90;;;;;;5014746;28;20203;-76
2023/09/14 11:40:47;;;;;;;6.20;2.97;;;19.90;99.90;;;;;;4997976;28;20605;-76
2023/09/14 11:43:21;;;;;;;4.68;2.72;;;19.60;99.90;;;;;;5014497;28;20573;-76
2023/09/14 11:45:59;;;;;;;6.72;3.40;;;19.40;99.90;;;;;;4997056;28;20188;-76
2023/09/14 11:48:29;;;;;;;8.23;2.78;;;19.30;99.90;;;;;;5014794;28;20191;-76
2023/09/14 11:51:00;;;;;;;5.97;3.15;;;19.50;99.90;;;;;;5014861;28;20172;-76
2023/09/14 11:53:28;;;;;;;6.00;3.38;;;19.90;99.90;;;;;;4996935;28;20164;-76
2023/09/14 11:55:53;;;;;;;4.60;3.00;;;20.10;99.90;;;;;;4996864;28;20215;-76
2023/09/14 11:58:23;;;;;;;7.28;3.47;;;20.00;99.90;;;;;;4996667;28;20302;-76
2023/09/14 12:00:50;;;;;;;4.82;2.83;;;19.90;99.90;;;;;;4996855;28;20184;-76
2023/09/14 12:03:16;;;;;;;6.78;3.28;;;19.70;99.90;;;;;;4996966;28;20246;-76
2023/09/14 12:05:42;;;;;;;5.05;2.88;;;19.60;99.90;;;;;;5014887;28;20180;-77
2023/09/14 12:08:10;;;;;;;7.68;3.10;;;19.40;99.90;;;;;;5000106;28;20218;-76
2023/09/14 12:10:36;;;;;;;7.10;3.28;;;19.30;99.90;;;;;;5002710;28;20176;-76
2023/09/14 12:13:13;;;;;;;7.03;3.30;;;19.20;99.90;;;;;;5000837;28;20179;-75
2023/09/14 12:15:42;;;;;;;6.25;3.03;;;19.20;99.90;;;;;;5019179;28;20178;-76
2023/09/14 12:18:10;;;;;;;6.28;3.00;;;19.20;99.90;;;;;;4997604;28;20226;-76
2023/09/14 12:20:38;;;;;;;5.40;3.20;;;19.50;99.90;;;;;;4996756;28;20188;-77
2023/09/14 12:23:04;;;;;;;8.63;3.05;;;19.90;99.90;;;;;;4996546;28;20203;-76
2023/09/14 12:25:31;;;;;;;6.50;3.42;;;20.30;99.90;;;;;;4996667;28;20232;-76
2023/09/14 12:28:00;;;;;;;6.20;2.97;;;20.60;99.90;;;;;;4996494;28;20196;-75
2023/09/14 12:30:27;;;;;;;7.05;3.90;;;20.60;99.90;;;;;;5013572;28;20557;-75
2023/09/14 12:32:53;;;;;;;5.47;3.00;;;20.70;99.90;;;;;;5014039;28;20589;-76
2023/09/14 12:35:19;;;;;;;8.63;3.22;;;20.90;99.90;;;;;;4996515;28;20271;-76
2023/09/14 12:37:45;;;;;;;8.50;3.17;;;21.20;99.90;;;;;;4996198;28;20574;-76
2023/09/14 12:40:12;;;;;;;3.88;2.80;;;21.50;99.90;;;;;;4996240;28;20653;-76
2023/09/14 12:42:42;;;;;;;5.00;2.85;;;21.70;99.90;;;;;;4996066;28;20557;-76
2023/09/14 12:45:15;;;;;;;6.28;3.20;;;21.70;99.90;;;;;;4999854;28;20179;-76